sensor_id;sensor_type;location;lat;lon;timestamp;pressure;altitude;pressure_sealevel;temperature;humidity
53754;BME280;39667;52.274;20.964;2022-07-31T00:00:16;99821.02;;;17.83;78.78
53754;BME280;39667;52.274;20.964;2022-07-31T00:02:42;99816.83;;;17.85;78.70
53754;BME280;39667;52.274;20.964;2022-07-31T00:05:10;99816.59;;;17.87;78.57
53754;BME280;39667;52.274;20.964;2022-07-31T00:07:37;99813.75;;;17.87;78.75
53754;BME280;39667;52.274;20.964;2022-07-31T00:10:05;99812.27;;;17.84;78.60
53754;BME280;39667;52.274;20.964;2022-07-31T00:12:32;99814.27;;;17.83;78.52
53754;BME280;39667;52.274;20.964;2022-07-31T00:15:02;99807.86;;;17.79;78.68
53754;BME280;39667;52.274;20.964;2022-07-31T00:17:31;99808.29;;;17.81;78.83
53754;BME280;39667;52.274;20.964;2022-07-31T00:19:58;99810.75;;;17.82;78.72
53754;BME280;39667;52.274;20.964;2022-07-31T00:22:24;99810.02;;;17.83;78.85
53754;BME280;39667;52.274;20.964;2022-07-31T00:24:51;99807.86;;;17.82;78.80
53754;BME280;39667;52.274;20.964;2022-07-31T00:27:18;99807.95;;;17.81;78.99
53754;BME280;39667;52.274;20.964;2022-07-31T00:29:45;99804.56;;;17.81;78.89
53754;BME280;39667;52.274;20.964;2022-07-31T00:32:11;99803.51;;;17.80;78.90
53754;BME280;39667;52.274;20.964;2022-07-31T00:34:38;99796.01;;;17.74;78.76
53754;BME280;39667;52.274;20.964;2022-07-31T00:37:05;99801.00;;;17.77;79.00
53754;BME280;39667;52.274;20.964;2022-07-31T00:39:33;99795.75;;;17.79;79.05
53754;BME280;39667;52.274;20.964;2022-07-31T00:41:59;99797.77;;;17.82;79.16
53754;BME280;39667;52.274;20.964;2022-07-31T00:44:26;99796.23;;;17.80;79.08
53754;BME280;39667;52.274;20.964;2022-07-31T00:46:57;99796.10;;;17.79;78.89
53754;BME280;39667;52.274;20.964;2022-07-31T00:49:27;99795.73;;;17.80;79.07
53754;BME280;39667;52.274;20.964;2022-07-31T00:52:04;99794.08;;;17.81;79.20
53754;BME280;39667;52.274;20.964;2022-07-31T00:54:32;99791.46;;;17.83;79.26
53754;BME280;39667;52.274;20.964;2022-07-31T00:56:59;99789.53;;;17.83;79.17
53754;BME280;39667;52.274;20.964;2022-07-31T00:59:27;99783.83;;;17.78;78.91
53754;BME280;39667;52.274;20.964;2022-07-31T01:01:55;99785.08;;;17.75;78.83
53754;BME280;39667;52.274;20.964;2022-07-31T01:04:22;99788.13;;;17.75;79.10
53754;BME280;39667;52.274;20.964;2022-07-31T01:06:49;99784.64;;;17.73;78.91
53754;BME280;39667;52.274;20.964;2022-07-31T01:09:16;99787.37;;;17.76;79.19
53754;BME280;39667;52.274;20.964;2022-07-31T01:11:47;99783.52;;;17.75;79.05
53754;BME280;39667;52.274;20.964;2022-07-31T01:14:19;99778.77;;;17.73;78.89
53754;BME280;39667;52.274;20.964;2022-07-31T01:16:49;99777.27;;;17.74;79.09
53754;BME280;39667;52.274;20.964;2022-07-31T01:19:33;99780.84;;;17.75;78.94
53754;BME280;39667;52.274;20.964;2022-07-31T01:22:29;99778.85;;;17.75;78.94
53754;BME280;39667;52.274;20.964;2022-07-31T01:31:10;99762.86;;;17.56;78.81
53754;BME280;39667;52.274;20.964;2022-07-31T01:34:10;99759.73;;;17.47;78.59
53754;BME280;39667;52.274;20.964;2022-07-31T01:36:43;99754.52;;;17.44;79.21
53754;BME280;39667;52.274;20.964;2022-07-31T01:39:12;99747.96;;;17.43;79.17
53754;BME280;39667;52.274;20.964;2022-07-31T01:41:42;99745.15;;;17.47;79.09
53754;BME280;39667;52.274;20.964;2022-07-31T01:44:14;99739.59;;;17.40;78.93
53754;BME280;39667;52.274;20.964;2022-07-31T01:46:43;99733.33;;;17.33;79.29
53754;BME280;39667;52.274;20.964;2022-07-31T01:49:13;99727.16;;;17.36;79.71
53754;BME280;39667;52.274;20.964;2022-07-31T01:51:43;99719.96;;;17.37;79.44
53754;BME280;39667;52.274;20.964;2022-07-31T01:54:11;99718.85;;;17.42;79.68
53754;BME280;39667;52.274;20.964;2022-07-31T01:56:39;99720.16;;;17.41;79.37
53754;BME280;39667;52.274;20.964;2022-07-31T01:59:08;99719.51;;;17.39;79.47
53754;BME280;39667;52.274;20.964;2022-07-31T02:02:27;99716.77;;;17.41;79.56
53754;BME280;39667;52.274;20.964;2022-07-31T02:04:56;99716.42;;;17.41;79.46
53754;BME280;39667;52.274;20.964;2022-07-31T02:07:24;99712.63;;;17.42;79.48
53754;BME280;39667;52.274;20.964;2022-07-31T02:09:53;99706.61;;;17.41;79.31
53754;BME280;39667;52.274;20.964;2022-07-31T02:12:27;99710.81;;;17.35;79.36
53754;BME280;39667;52.274;20.964;2022-07-31T02:15:01;99706.86;;;17.36;79.45
53754;BME280;39667;52.274;20.964;2022-07-31T02:17:29;99705.65;;;17.35;79.58
53754;BME280;39667;52.274;20.964;2022-07-31T02:20:17;99704.88;;;17.37;79.56
53754;BME280;39667;52.274;20.964;2022-07-31T02:22:46;99709.82;;;17.33;79.71
53754;BME280;39667;52.274;20.964;2022-07-31T02:25:13;99704.77;;;17.35;79.75
53754;BME280;39667;52.274;20.964;2022-07-31T02:27:41;99697.59;;;17.36;79.86
53754;BME280;39667;52.274;20.964;2022-07-31T02:30:30;99696.73;;;17.36;79.91
53754;BME280;39667;52.274;20.964;2022-07-31T02:33:12;99695.50;;;17.31;79.79
53754;BME280;39667;52.274;20.964;2022-07-31T02:35:41;99693.69;;;17.25;79.75
53754;BME280;39667;52.274;20.964;2022-07-31T02:38:14;99698.30;;;17.25;79.95
53754;BME280;39667;52.274;20.964;2022-07-31T02:40:53;99697.49;;;17.30;80.04
53754;BME280;39667;52.274;20.964;2022-07-31T02:43:24;99695.91;;;17.34;80.06
53754;BME280;39667;52.274;20.964;2022-07-31T02:45:54;99698.42;;;17.37;79.95
53754;BME280;39667;52.274;20.964;2022-07-31T02:48:23;99699.58;;;17.39;80.05
53754;BME280;39667;52.274;20.964;2022-07-31T02:50:51;99699.77;;;17.43;79.83
53754;BME280;39667;52.274;20.964;2022-07-31T02:53:19;99694.05;;;17.40;79.53
53754;BME280;39667;52.274;20.964;2022-07-31T02:55:49;99695.26;;;17.37;79.82
53754;BME280;39667;52.274;20.964;2022-07-31T02:58:16;99690.94;;;17.38;80.03
53754;BME280;39667;52.274;20.964;2022-07-31T03:00:43;99690.95;;;17.38;79.97
53754;BME280;39667;52.274;20.964;2022-07-31T03:03:11;99686.41;;;17.32;79.92
53754;BME280;39667;52.274;20.964;2022-07-31T03:05:38;99690.23;;;17.34;79.96
53754;BME280;39667;52.274;20.964;2022-07-31T03:08:05;99692.94;;;17.37;80.03
53754;BME280;39667;52.274;20.964;2022-07-31T03:10:33;99687.14;;;17.39;80.05
53754;BME280;39667;52.274;20.964;2022-07-31T03:13:04;99684.79;;;17.40;80.06
53754;BME280;39667;52.274;20.964;2022-07-31T03:15:32;99684.13;;;17.39;79.90
53754;BME280;39667;52.274;20.964;2022-07-31T03:18:01;99681.95;;;17.39;80.16
53754;BME280;39667;52.274;20.964;2022-07-31T03:20:40;99676.02;;;17.41;79.98
53754;BME280;39667;52.274;20.964;2022-07-31T03:23:10;99678.59;;;17.43;80.14
53754;BME280;39667;52.274;20.964;2022-07-31T03:25:49;99668.13;;;17.42;80.02
53754;BME280;39667;52.274;20.964;2022-07-31T03:28:18;99671.00;;;17.45;79.83
53754;BME280;39667;52.274;20.964;2022-07-31T03:30:49;99669.44;;;17.44;79.92
53754;BME280;39667;52.274;20.964;2022-07-31T03:33:20;99672.52;;;17.39;79.76
53754;BME280;39667;52.274;20.964;2022-07-31T03:35:48;99670.55;;;17.39;79.91
53754;BME280;39667;52.274;20.964;2022-07-31T03:38:15;99669.33;;;17.39;79.89
53754;BME280;39667;52.274;20.964;2022-07-31T03:41:02;99659.35;;;17.36;79.92
53754;BME280;39667;52.274;20.964;2022-07-31T03:43:31;99660.14;;;17.38;80.05
53754;BME280;39667;52.274;20.964;2022-07-31T03:46:14;99665.06;;;17.43;80.10
53754;BME280;39667;52.274;20.964;2022-07-31T03:48:42;99658.98;;;17.40;80.19
53754;BME280;39667;52.274;20.964;2022-07-31T03:51:11;99655.02;;;17.41;80.14
53754;BME280;39667;52.274;20.964;2022-07-31T03:53:39;99652.55;;;17.40;80.17
53754;BME280;39667;52.274;20.964;2022-07-31T03:56:07;99654.51;;;17.40;80.15
53754;BME280;39667;52.274;20.964;2022-07-31T03:58:36;99655.59;;;17.40;80.21
53754;BME280;39667;52.274;20.964;2022-07-31T04:01:05;99648.05;;;17.38;80.04
53754;BME280;39667;52.274;20.964;2022-07-31T04:03:38;99647.77;;;17.36;80.03
53754;BME280;39667;52.274;20.964;2022-07-31T04:06:32;99646.66;;;17.30;80.18
53754;BME280;39667;52.274;20.964;2022-07-31T04:08:59;99643.86;;;17.32;80.44
53754;BME280;39667;52.274;20.964;2022-07-31T04:11:44;99639.45;;;17.35;80.49
53754;BME280;39667;52.274;20.964;2022-07-31T04:14:11;99637.73;;;17.38;80.54
53754;BME280;39667;52.274;20.964;2022-07-31T04:16:38;99628.86;;;17.37;80.36
53754;BME280;39667;52.274;20.964;2022-07-31T04:19:04;99625.62;;;17.38;80.60
53754;BME280;39667;52.274;20.964;2022-07-31T04:21:31;99622.73;;;17.39;80.38
53754;BME280;39667;52.274;20.964;2022-07-31T04:23:58;99620.95;;;17.39;80.44
53754;BME280;39667;52.274;20.964;2022-07-31T04:27:01;99622.91;;;17.35;80.28
53754;BME280;39667;52.274;20.964;2022-07-31T04:29:42;99621.75;;;17.37;80.67
53754;BME280;39667;52.274;20.964;2022-07-31T04:32:09;99622.31;;;17.36;80.44
53754;BME280;39667;52.274;20.964;2022-07-31T04:34:45;99620.61;;;17.35;80.60
53754;BME280;39667;52.274;20.964;2022-07-31T04:37:12;99620.21;;;17.35;80.57
53754;BME280;39667;52.274;20.964;2022-07-31T04:39:39;99619.48;;;17.36;80.60
53754;BME280;39667;52.274;20.964;2022-07-31T04:42:06;99622.30;;;17.40;80.63
53754;BME280;39667;52.274;20.964;2022-07-31T04:44:37;99616.29;;;17.39;80.77
53754;BME280;39667;52.274;20.964;2022-07-31T04:47:05;99620.04;;;17.42;80.67
53754;BME280;39667;52.274;20.964;2022-07-31T04:49:36;99624.61;;;17.44;80.70
53754;BME280;39667;52.274;20.964;2022-07-31T04:52:04;99623.73;;;17.44;80.56
53754;BME280;39667;52.274;20.964;2022-07-31T04:54:32;99619.76;;;17.41;80.43
53754;BME280;39667;52.274;20.964;2022-07-31T04:57:00;99624.69;;;17.42;80.58
53754;BME280;39667;52.274;20.964;2022-07-31T04:59:27;99627.41;;;17.41;80.43
53754;BME280;39667;52.274;20.964;2022-07-31T05:02:13;99626.83;;;17.35;80.55
53754;BME280;39667;52.274;20.964;2022-07-31T05:04:40;99627.81;;;17.33;80.89
53754;BME280;39667;52.274;20.964;2022-07-31T05:07:07;99624.41;;;17.33;80.84
53754;BME280;39667;52.274;20.964;2022-07-31T05:09:34;99625.94;;;17.35;81.02
53754;BME280;39667;52.274;20.964;2022-07-31T05:12:03;99627.98;;;17.37;80.81
53754;BME280;39667;52.274;20.964;2022-07-31T05:14:31;99627.52;;;17.39;80.85
53754;BME280;39667;52.274;20.964;2022-07-31T05:16:57;99628.91;;;17.40;80.83
53754;BME280;39667;52.274;20.964;2022-07-31T05:19:30;99627.69;;;17.39;80.80
53754;BME280;39667;52.274;20.964;2022-07-31T05:22:16;99629.58;;;17.41;80.83
53754;BME280;39667;52.274;20.964;2022-07-31T05:25:03;99629.77;;;17.44;80.74
53754;BME280;39667;52.274;20.964;2022-07-31T05:27:30;99625.14;;;17.44;80.59
53754;BME280;39667;52.274;20.964;2022-07-31T05:30:04;99627.71;;;17.42;80.54
53754;BME280;39667;52.274;20.964;2022-07-31T05:32:34;99628.98;;;17.42;80.61
53754;BME280;39667;52.274;20.964;2022-07-31T05:35:01;99630.34;;;17.42;80.55
53754;BME280;39667;52.274;20.964;2022-07-31T05:37:27;99630.25;;;17.45;80.53
53754;BME280;39667;52.274;20.964;2022-07-31T05:39:57;99629.39;;;17.37;80.17
53754;BME280;39667;52.274;20.964;2022-07-31T05:42:59;99631.52;;;17.38;80.26
53754;BME280;39667;52.274;20.964;2022-07-31T05:45:43;99631.88;;;17.34;80.40
53754;BME280;39667;52.274;20.964;2022-07-31T05:48:10;99631.48;;;17.30;80.38
53754;BME280;39667;52.274;20.964;2022-07-31T05:50:36;99628.30;;;17.30;80.54
53754;BME280;39667;52.274;20.964;2022-07-31T05:53:03;99630.58;;;17.35;80.68
53754;BME280;39667;52.274;20.964;2022-07-31T05:55:50;99628.30;;;17.34;80.24
53754;BME280;39667;52.274;20.964;2022-07-31T05:58:37;99624.98;;;17.29;80.43
53754;BME280;39667;52.274;20.964;2022-07-31T06:01:04;99624.30;;;17.28;80.40
53754;BME280;39667;52.274;20.964;2022-07-31T06:03:32;99622.52;;;17.32;80.52
53754;BME280;39667;52.274;20.964;2022-07-31T06:06:24;99624.77;;;17.33;80.28
53754;BME280;39667;52.274;20.964;2022-07-31T06:08:51;99626.48;;;17.31;80.29
53754;BME280;39667;52.274;20.964;2022-07-31T06:11:19;99622.90;;;17.31;80.34
53754;BME280;39667;52.274;20.964;2022-07-31T06:13:45;99624.46;;;17.36;80.50
53754;BME280;39667;52.274;20.964;2022-07-31T06:16:17;99623.14;;;17.38;80.37
53754;BME280;39667;52.274;20.964;2022-07-31T06:18:44;99623.23;;;17.40;80.37
53754;BME280;39667;52.274;20.964;2022-07-31T06:21:11;99616.99;;;17.43;80.34
53754;BME280;39667;52.274;20.964;2022-07-31T06:23:37;99616.23;;;17.44;80.18
53754;BME280;39667;52.274;20.964;2022-07-31T06:26:13;99617.53;;;17.47;80.35
53754;BME280;39667;52.274;20.964;2022-07-31T06:28:40;99615.44;;;17.45;80.16
53754;BME280;39667;52.274;20.964;2022-07-31T06:31:18;99616.20;;;17.48;80.31
53754;BME280;39667;52.274;20.964;2022-07-31T06:33:47;99613.19;;;17.48;80.13
53754;BME280;39667;52.274;20.964;2022-07-31T06:36:16;99617.65;;;17.44;79.96
53754;BME280;39667;52.274;20.964;2022-07-31T06:38:57;99611.15;;;17.46;80.12
53754;BME280;39667;52.274;20.964;2022-07-31T06:41:23;99608.09;;;17.50;80.27
53754;BME280;39667;52.274;20.964;2022-07-31T06:44:28;99608.71;;;17.49;79.86
53754;BME280;39667;52.274;20.964;2022-07-31T06:47:20;99609.85;;;17.43;79.88
53754;BME280;39667;52.274;20.964;2022-07-31T06:50:06;99611.43;;;17.44;80.16
53754;BME280;39667;52.274;20.964;2022-07-31T06:52:36;99612.90;;;17.43;80.10
53754;BME280;39667;52.274;20.964;2022-07-31T06:55:05;99604.90;;;17.43;80.07
53754;BME280;39667;52.274;20.964;2022-07-31T06:57:33;99606.86;;;17.39;79.95
53754;BME280;39667;52.274;20.964;2022-07-31T07:00:00;99604.57;;;17.35;80.00
53754;BME280;39667;52.274;20.964;2022-07-31T07:02:40;99608.27;;;17.40;80.15
53754;BME280;39667;52.274;20.964;2022-07-31T07:05:07;99605.75;;;17.37;80.12
53754;BME280;39667;52.274;20.964;2022-07-31T07:07:35;99603.38;;;17.38;80.13
53754;BME280;39667;52.274;20.964;2022-07-31T07:10:04;99603.07;;;17.37;80.23
53754;BME280;39667;52.274;20.964;2022-07-31T07:12:54;99602.13;;;17.41;80.35
53754;BME280;39667;52.274;20.964;2022-07-31T07:15:21;99598.05;;;17.44;80.47
53754;BME280;39667;52.274;20.964;2022-07-31T07:17:47;99601.98;;;17.48;80.40
53754;BME280;39667;52.274;20.964;2022-07-31T07:20:19;99600.21;;;17.47;80.26
53754;BME280;39667;52.274;20.964;2022-07-31T07:22:46;99594.56;;;17.47;80.18
53754;BME280;39667;52.274;20.964;2022-07-31T07:25:21;99598.00;;;17.42;80.06
53754;BME280;39667;52.274;20.964;2022-07-31T07:27:49;99603.30;;;17.43;80.32
53754;BME280;39667;52.274;20.964;2022-07-31T07:30:16;99603.88;;;17.42;80.22
53754;BME280;39667;52.274;20.964;2022-07-31T07:32:43;99604.60;;;17.42;80.42
53754;BME280;39667;52.274;20.964;2022-07-31T07:35:10;99594.17;;;17.40;80.58
53754;BME280;39667;52.274;20.964;2022-07-31T07:37:47;99600.94;;;17.47;80.75
53754;BME280;39667;52.274;20.964;2022-07-31T07:40:14;99599.53;;;17.50;80.60
53754;BME280;39667;52.274;20.964;2022-07-31T07:42:42;99598.06;;;17.55;80.87
53754;BME280;39667;52.274;20.964;2022-07-31T07:45:10;99598.23;;;17.62;80.76
53754;BME280;39667;52.274;20.964;2022-07-31T07:47:39;99595.98;;;17.61;80.55
53754;BME280;39667;52.274;20.964;2022-07-31T07:50:28;99600.31;;;17.64;80.73
53754;BME280;39667;52.274;20.964;2022-07-31T07:53:13;99602.52;;;17.65;80.77
53754;BME280;39667;52.274;20.964;2022-07-31T07:56:09;99600.61;;;17.68;80.73
53754;BME280;39667;52.274;20.964;2022-07-31T07:58:55;99594.83;;;17.69;80.79
53754;BME280;39667;52.274;20.964;2022-07-31T08:01:42;99596.95;;;17.74;80.95
53754;BME280;39667;52.274;20.964;2022-07-31T08:04:22;99597.02;;;17.76;80.92
53754;BME280;39667;52.274;20.964;2022-07-31T08:06:49;99600.13;;;17.78;80.96
53754;BME280;39667;52.274;20.964;2022-07-31T08:09:16;99592.58;;;17.72;80.76
53754;BME280;39667;52.274;20.964;2022-07-31T08:12:04;99599.55;;;17.75;81.07
53754;BME280;39667;52.274;20.964;2022-07-31T08:14:49;99598.10;;;17.79;81.19
53754;BME280;39667;52.274;20.964;2022-07-31T08:17:35;99598.02;;;17.80;81.17
53754;BME280;39667;52.274;20.964;2022-07-31T08:20:03;99598.92;;;17.84;81.22
53754;BME280;39667;52.274;20.964;2022-07-31T08:22:31;99600.94;;;17.86;81.21
53754;BME280;39667;52.274;20.964;2022-07-31T08:24:58;99600.98;;;17.89;81.15
53754;BME280;39667;52.274;20.964;2022-07-31T08:27:31;99601.58;;;17.91;81.27
53754;BME280;39667;52.274;20.964;2022-07-31T08:30:07;99600.85;;;17.95;81.30
53754;BME280;39667;52.274;20.964;2022-07-31T08:32:34;99603.15;;;17.98;81.33
53754;BME280;39667;52.274;20.964;2022-07-31T08:35:29;99603.55;;;18.01;81.25
53754;BME280;39667;52.274;20.964;2022-07-31T08:37:56;99598.48;;;18.03;81.28
53754;BME280;39667;52.274;20.964;2022-07-31T08:40:37;99594.80;;;18.05;81.09
53754;BME280;39667;52.274;20.964;2022-07-31T08:43:09;99598.96;;;18.07;81.15
53754;BME280;39667;52.274;20.964;2022-07-31T08:45:58;99600.98;;;18.05;80.99
53754;BME280;39667;52.274;20.964;2022-07-31T08:48:31;99596.80;;;18.07;81.15
53754;BME280;39667;52.274;20.964;2022-07-31T08:51:01;99598.32;;;18.09;81.16
53754;BME280;39667;52.274;20.964;2022-07-31T08:53:49;99599.63;;;18.12;81.21
53754;BME280;39667;52.274;20.964;2022-07-31T08:56:19;99599.05;;;18.13;81.17
53754;BME280;39667;52.274;20.964;2022-07-31T08:58:46;99599.50;;;18.14;81.16
53754;BME280;39667;52.274;20.964;2022-07-31T09:01:13;99600.95;;;18.17;81.16
53754;BME280;39667;52.274;20.964;2022-07-31T09:03:40;99599.94;;;18.23;81.32
53754;BME280;39667;52.274;20.964;2022-07-31T09:06:13;99604.47;;;18.28;81.38
53754;BME280;39667;52.274;20.964;2022-07-31T09:08:40;99605.68;;;18.32;81.11
53754;BME280;39667;52.274;20.964;2022-07-31T09:11:12;99606.19;;;18.33;81.03
53754;BME280;39667;52.274;20.964;2022-07-31T09:14:00;99604.39;;;18.26;80.76
53754;BME280;39667;52.274;20.964;2022-07-31T09:16:45;99607.45;;;18.29;81.17
53754;BME280;39667;52.274;20.964;2022-07-31T09:19:13;99607.24;;;18.33;81.10
53754;BME280;39667;52.274;20.964;2022-07-31T09:22:02;99614.38;;;18.36;81.10
53754;BME280;39667;52.274;20.964;2022-07-31T09:24:35;99615.72;;;18.38;80.93
53754;BME280;39667;52.274;20.964;2022-07-31T09:27:08;99616.42;;;18.38;81.04
53754;BME280;39667;52.274;20.964;2022-07-31T09:29:38;99622.45;;;18.42;80.86
53754;BME280;39667;52.274;20.964;2022-07-31T09:32:16;99622.83;;;18.41;80.96
53754;BME280;39667;52.274;20.964;2022-07-31T09:35:08;99627.52;;;18.44;81.11
53754;BME280;39667;52.274;20.964;2022-07-31T09:37:37;99630.67;;;18.45;81.04
53754;BME280;39667;52.274;20.964;2022-07-31T09:40:34;99629.54;;;18.46;80.85
53754;BME280;39667;52.274;20.964;2022-07-31T09:43:23;99631.01;;;18.42;80.77
53754;BME280;39667;52.274;20.964;2022-07-31T09:45:59;99629.62;;;18.42;80.95
53754;BME280;39667;52.274;20.964;2022-07-31T09:48:27;99628.69;;;18.46;81.00
53754;BME280;39667;52.274;20.964;2022-07-31T09:51:04;99628.53;;;18.48;81.00
53754;BME280;39667;52.274;20.964;2022-07-31T09:53:39;99632.00;;;18.50;80.97
53754;BME280;39667;52.274;20.964;2022-07-31T09:56:34;99631.67;;;18.52;81.02
53754;BME280;39667;52.274;20.964;2022-07-31T09:59:01;99632.51;;;18.54;80.89
53754;BME280;39667;52.274;20.964;2022-07-31T10:01:30;99630.23;;;18.53;80.81
53754;BME280;39667;52.274;20.964;2022-07-31T10:03:59;99626.91;;;18.52;80.78
53754;BME280;39667;52.274;20.964;2022-07-31T10:06:30;99628.97;;;18.53;80.71
53754;BME280;39667;52.274;20.964;2022-07-31T10:08:59;99633.33;;;18.49;80.70
53754;BME280;39667;52.274;20.964;2022-07-31T10:11:54;99632.00;;;18.43;80.86
53754;BME280;39667;52.274;20.964;2022-07-31T10:14:27;99627.66;;;18.45;81.17
53754;BME280;39667;52.274;20.964;2022-07-31T10:16:56;99624.34;;;18.46;81.05
53754;BME280;39667;52.274;20.964;2022-07-31T10:19:34;99623.77;;;18.47;81.03
53754;BME280;39667;52.274;20.964;2022-07-31T10:22:22;99627.23;;;18.52;81.20
53754;BME280;39667;52.274;20.964;2022-07-31T10:24:53;99627.49;;;18.54;81.14
53754;BME280;39667;52.274;20.964;2022-07-31T10:27:21;99629.65;;;18.54;81.02
53754;BME280;39667;52.274;20.964;2022-07-31T10:30:05;99635.92;;;18.57;81.10
53754;BME280;39667;52.274;20.964;2022-07-31T10:32:35;99635.67;;;18.61;81.04
53754;BME280;39667;52.274;20.964;2022-07-31T10:35:21;99637.95;;;18.72;81.20
53754;BME280;39667;52.274;20.964;2022-07-31T10:41:17;99641.15;;;18.88;80.86
53754;BME280;39667;52.274;20.964;2022-07-31T10:43:51;99643.45;;;18.89;80.52
53754;BME280;39667;52.274;20.964;2022-07-31T10:46:51;99643.86;;;18.88;80.23
53754;BME280;39667;52.274;20.964;2022-07-31T10:49:44;99647.66;;;18.90;80.34
53754;BME280;39667;52.274;20.964;2022-07-31T10:52:38;99645.52;;;18.93;80.35
53754;BME280;39667;52.274;20.964;2022-07-31T10:55:21;99645.86;;;18.93;80.10
53754;BME280;39667;52.274;20.964;2022-07-31T11:01:07;99644.52;;;18.95;79.94
53754;BME280;39667;52.274;20.964;2022-07-31T11:04:01;99647.11;;;18.97;80.08
53754;BME280;39667;52.274;20.964;2022-07-31T11:06:48;99649.77;;;19.00;79.89
53754;BME280;39667;52.274;20.964;2022-07-31T11:09:36;99652.06;;;19.01;79.60
53754;BME280;39667;52.274;20.964;2022-07-31T11:13:04;99648.17;;;19.00;79.55
53754;BME280;39667;52.274;20.964;2022-07-31T11:16:05;99651.45;;;18.99;79.58
53754;BME280;39667;52.274;20.964;2022-07-31T11:19:03;99648.72;;;19.00;79.59
53754;BME280;39667;52.274;20.964;2022-07-31T11:21:36;99647.73;;;18.95;79.41
53754;BME280;39667;52.274;20.964;2022-07-31T11:24:23;99651.73;;;18.94;79.55
53754;BME280;39667;52.274;20.964;2022-07-31T11:26:55;99653.65;;;18.91;79.55
53754;BME280;39667;52.274;20.964;2022-07-31T11:29:32;99654.58;;;18.94;79.63
53754;BME280;39667;52.274;20.964;2022-07-31T11:32:23;99656.19;;;18.97;79.63
53754;BME280;39667;52.274;20.964;2022-07-31T11:34:54;99658.21;;;19.03;79.71
53754;BME280;39667;52.274;20.964;2022-07-31T11:37:29;99661.58;;;19.06;79.40
53754;BME280;39667;52.274;20.964;2022-07-31T11:40:20;99661.39;;;19.06;79.17
53754;BME280;39667;52.274;20.964;2022-07-31T11:42:54;99665.17;;;19.02;78.99
53754;BME280;39667;52.274;20.964;2022-07-31T11:45:50;99668.64;;;18.98;79.24
53754;BME280;39667;52.274;20.964;2022-07-31T11:48:19;99675.02;;;18.99;79.50
53754;BME280;39667;52.274;20.964;2022-07-31T11:50:49;99670.41;;;19.01;79.42
53754;BME280;39667;52.274;20.964;2022-07-31T11:53:18;99669.30;;;19.05;79.47
53754;BME280;39667;52.274;20.964;2022-07-31T11:55:51;99671.67;;;19.08;79.19
53754;BME280;39667;52.274;20.964;2022-07-31T11:58:22;99669.45;;;19.02;79.09
53754;BME280;39667;52.274;20.964;2022-07-31T12:01:01;99670.77;;;18.98;79.02
53754;BME280;39667;52.274;20.964;2022-07-31T12:03:36;99674.11;;;18.99;79.42
53754;BME280;39667;52.274;20.964;2022-07-31T12:06:07;99676.66;;;19.01;79.25
53754;BME280;39667;52.274;20.964;2022-07-31T12:08:36;99675.02;;;19.02;79.31
53754;BME280;39667;52.274;20.964;2022-07-31T12:11:05;99676.65;;;19.01;79.09
53754;BME280;39667;52.274;20.964;2022-07-31T12:13:33;99680.98;;;19.01;79.13
53754;BME280;39667;52.274;20.964;2022-07-31T12:16:04;99680.77;;;18.94;78.90
53754;BME280;39667;52.274;20.964;2022-07-31T12:21:12;99683.17;;;18.96;79.19
53754;BME280;39667;52.274;20.964;2022-07-31T12:26:10;99684.97;;;19.02;79.22
53754;BME280;39667;52.274;20.964;2022-07-31T12:28:38;99689.27;;;19.02;79.15
53754;BME280;39667;52.274;20.964;2022-07-31T12:31:05;99686.08;;;19.02;79.07
53754;BME280;39667;52.274;20.964;2022-07-31T12:33:40;99686.80;;;19.02;78.94
53754;BME280;39667;52.274;20.964;2022-07-31T12:36:11;99686.51;;;19.04;78.97
53754;BME280;39667;52.274;20.964;2022-07-31T12:38:39;99690.90;;;19.05;78.95
53754;BME280;39667;52.274;20.964;2022-07-31T12:41:13;99695.54;;;19.05;78.90
53754;BME280;39667;52.274;20.964;2022-07-31T12:43:40;99693.64;;;19.07;79.07
53754;BME280;39667;52.274;20.964;2022-07-31T12:46:32;99693.32;;;19.10;78.78
53754;BME280;39667;52.274;20.964;2022-07-31T12:49:05;99687.51;;;19.12;78.72
53754;BME280;39667;52.274;20.964;2022-07-31T12:51:34;99690.82;;;19.13;78.81
53754;BME280;39667;52.274;20.964;2022-07-31T12:54:14;99692.16;;;19.12;78.44
53754;BME280;39667;52.274;20.964;2022-07-31T12:56:42;99691.35;;;19.11;78.42
53754;BME280;39667;52.274;20.964;2022-07-31T12:59:10;99688.45;;;19.11;78.50
53754;BME280;39667;52.274;20.964;2022-07-31T13:01:37;99684.73;;;19.07;78.20
53754;BME280;39667;52.274;20.964;2022-07-31T13:04:05;99684.36;;;19.04;78.36
53754;BME280;39667;52.274;20.964;2022-07-31T13:06:44;99687.27;;;19.06;78.43
53754;BME280;39667;52.274;20.964;2022-07-31T13:09:10;99688.31;;;19.03;78.22
53754;BME280;39667;52.274;20.964;2022-07-31T13:11:37;99690.02;;;18.99;78.17
53754;BME280;39667;52.274;20.964;2022-07-31T13:14:12;99689.58;;;18.93;78.37
53754;BME280;39667;52.274;20.964;2022-07-31T13:16:39;99688.64;;;18.94;78.45
53754;BME280;39667;52.274;20.964;2022-07-31T13:19:06;99690.20;;;18.95;78.48
53754;BME280;39667;52.274;20.964;2022-07-31T13:21:33;99697.95;;;18.94;78.34
53754;BME280;39667;52.274;20.964;2022-07-31T13:24:16;99694.08;;;18.89;78.25
53754;BME280;39667;52.274;20.964;2022-07-31T13:26:43;99695.52;;;18.86;78.27
53754;BME280;39667;52.274;20.964;2022-07-31T13:29:11;99697.56;;;18.81;78.32
53754;BME280;39667;52.274;20.964;2022-07-31T13:31:37;99698.20;;;18.79;78.63
53754;BME280;39667;52.274;20.964;2022-07-31T13:34:05;99696.05;;;18.79;78.45
53754;BME280;39667;52.274;20.964;2022-07-31T13:36:33;99695.20;;;18.78;78.50
53754;BME280;39667;52.274;20.964;2022-07-31T13:39:06;99700.97;;;18.77;78.70
53754;BME280;39667;52.274;20.964;2022-07-31T13:41:33;99702.81;;;18.76;78.68